Time;durP1;ratioP1;P1;durP2;ratioP2;P2;SDS_P1;SDS_P2;PMS_P1;PMS_P2;Temp;Humidity;BMP_temperature;BMP_pressure;BME280_temperature;BME280_humidity;BME280_pressure;Samples;Min_cycle;Max_cycle;Signal;HPM_P1;HPM_P2
2021/12/08 00:00:11;;;;;;;3.13;1.83;;;4.20;99.90;;;;;;5031902;28;20272;-56
2021/12/08 00:02:38;;;;;;;2.83;1.70;;;4.20;99.90;;;;;;5031847;28;20210;-54
2021/12/08 00:05:05;;;;;;;2.57;1.40;;;4.30;99.90;;;;;;5031765;28;20207;-55
2021/12/08 00:07:34;;;;;;;2.90;1.70;;;4.20;99.90;;;;;;5031440;28;20202;-55
2021/12/08 00:10:12;;;;;;;3.33;2.30;;;4.10;99.90;;;;;;5031525;28;20670;-55
2021/12/08 00:15:23;;;;;;;4.10;1.60;;;4.10;99.90;;;;;;5031846;28;20257;-53
2021/12/08 00:17:50;;;;;;;3.10;1.60;;;4.10;99.90;;;;;;5031548;28;20206;-54
2021/12/08 00:20:16;;;;;;;5.53;1.90;;;4.20;99.90;;;;;;5031520;28;20229;-55
2021/12/08 00:22:45;;;;;;;5.33;2.10;;;4.30;99.90;;;;;;5031496;28;20682;-53
2021/12/08 00:25:12;;;;;;;2.97;1.63;;;4.30;99.90;;;;;;5033692;28;20206;-53
2021/12/08 00:27:38;;;;;;;2.60;1.80;;;4.40;99.90;;;;;;5035151;28;20233;-53
2021/12/08 00:30:07;;;;;;;4.03;1.80;;;4.40;99.90;;;;;;5035200;28;20636;-53
2021/12/08 00:32:35;;;;;;;3.93;1.70;;;4.40;99.90;;;;;;5035353;28;20233;-53
2021/12/08 00:35:03;;;;;;;2.93;1.80;;;4.40;99.90;;;;;;5035129;28;20224;-56
2021/12/08 00:37:30;;;;;;;3.63;2.10;;;4.60;99.90;;;;;;5035076;28;20582;-57
2021/12/08 00:39:58;;;;;;;3.57;1.70;;;4.70;99.90;;;;;;5036937;28;20234;-53
2021/12/08 00:42:25;;;;;;;4.20;2.03;;;4.80;99.90;;;;;;5036614;28;20678;-54
2021/12/08 00:44:52;;;;;;;3.30;1.90;;;4.70;99.90;;;;;;5037003;28;20528;-53
2021/12/08 00:47:19;;;;;;;2.43;1.57;;;4.80;99.90;;;;;;5036128;28;20210;-57
2021/12/08 00:49:47;;;;;;;3.43;1.70;;;4.70;99.90;;;;;;5034783;28;20233;-55
2021/12/08 00:52:14;;;;;;;3.03;1.50;;;4.80;99.90;;;;;;5035006;28;20210;-53
2021/12/08 00:54:41;;;;;;;4.10;1.80;;;4.90;99.90;;;;;;5034955;28;20210;-53
2021/12/08 00:57:10;;;;;;;3.63;1.70;;;5.00;99.90;;;;;;5034627;28;20652;-52
2021/12/08 00:59:37;;;;;;;2.20;1.47;;;5.10;99.90;;;;;;5034638;28;20233;-54
2021/12/08 01:02:04;;;;;;;2.30;1.67;;;5.10;99.90;;;;;;5034629;28;20217;-53
2021/12/08 01:04:33;;;;;;;2.13;1.70;;;5.10;99.90;;;;;;5034668;28;20210;-53
2021/12/08 01:06:59;;;;;;;2.13;1.43;;;5.00;99.90;;;;;;5034553;28;20202;-53
2021/12/08 01:09:26;;;;;;;2.77;1.50;;;5.10;99.90;;;;;;5034655;28;20593;-53
2021/12/08 01:11:55;;;;;;;4.27;1.60;;;5.00;99.90;;;;;;5034607;28;20260;-54
2021/12/08 01:14:24;;;;;;;2.17;1.40;;;4.90;99.90;;;;;;5034317;28;20245;-54
2021/12/08 01:16:52;;;;;;;4.20;2.17;;;4.70;99.90;;;;;;5034401;28;20226;-54
2021/12/08 01:19:19;;;;;;;3.50;1.80;;;4.50;99.90;;;;;;5034272;28;20711;-53
2021/12/08 01:21:46;;;;;;;2.83;1.70;;;4.20;99.90;;;;;;5034395;28;20203;-54
2021/12/08 01:24:12;;;;;;;5.03;1.73;;;4.20;99.90;;;;;;5034840;28;20202;-54
2021/12/08 01:26:39;;;;;;;2.57;1.60;;;4.00;99.90;;;;;;5034235;28;20202;-55
2021/12/08 01:29:07;;;;;;;2.47;1.73;;;4.10;99.90;;;;;;5033848;28;20206;-54
2021/12/08 01:31:41;;;;;;;1.80;1.53;;;4.10;99.90;;;;;;5034416;28;20293;-54
2021/12/08 01:34:08;;;;;;;3.30;1.60;;;4.30;99.90;;;;;;5034147;28;20212;-55
2021/12/08 01:36:34;;;;;;;2.83;1.90;;;4.40;99.90;;;;;;5033602;28;20226;-54
2021/12/08 01:39:01;;;;;;;4.37;1.63;;;4.40;99.90;;;;;;5033544;28;20661;-54
2021/12/08 01:41:28;;;;;;;1.60;1.23;;;4.60;99.90;;;;;;5033979;28;20210;-55
2021/12/08 01:46:40;;;;;;;2.17;1.50;;;4.80;99.90;;;;;;5034093;28;20200;-54
2021/12/08 01:49:07;;;;;;;2.30;1.53;;;4.80;99.90;;;;;;5033495;28;20261;-54
2021/12/08 01:51:34;;;;;;;3.43;2.00;;;4.90;99.90;;;;;;5033842;28;20674;-55
2021/12/08 01:54:02;;;;;;;2.00;1.30;;;5.00;99.90;;;;;;5033789;28;20210;-54
2021/12/08 01:56:30;;;;;;;4.70;1.60;;;4.90;99.90;;;;;;5033484;28;20690;-54
2021/12/08 01:58:57;;;;;;;2.63;1.47;;;4.80;99.90;;;;;;5033524;28;20210;-54
2021/12/08 02:01:26;;;;;;;2.07;1.50;;;4.60;99.90;;;;;;5033947;28;20642;-55
2021/12/08 02:03:55;;;;;;;2.60;1.70;;;4.30;99.90;;;;;;5033542;28;20264;-54
2021/12/08 02:06:23;;;;;;;2.53;1.50;;;4.10;99.90;;;;;;5033609;28;20256;-54
2021/12/08 02:08:52;;;;;;;1.93;1.47;;;4.00;99.90;;;;;;5033245;28;20206;-53
2021/12/08 02:11:19;;;;;;;3.07;2.00;;;4.00;99.90;;;;;;5033525;28;20229;-54
2021/12/08 02:13:49;;;;;;;4.70;2.20;;;3.90;99.90;;;;;;5033644;28;20213;-53
2021/12/08 02:16:17;;;;;;;6.33;3.57;;;3.80;99.90;;;;;;5033276;28;20210;-54
2021/12/08 02:18:48;;;;;;;10.30;6.10;;;3.80;99.90;;;;;;5033192;28;20260;-54
2021/12/08 02:21:25;;;;;;;9.27;4.60;;;3.80;99.90;;;;;;5033125;28;20230;-54
2021/12/08 02:23:53;;;;;;;11.67;6.00;;;3.90;99.90;;;;;;5033473;28;20260;-53
2021/12/08 02:26:19;;;;;;;12.27;5.20;;;3.90;99.90;;;;;;5033247;28;20210;-54
2021/12/08 02:28:47;;;;;;;18.30;8.23;;;3.90;99.90;;;;;;5033023;28;20206;-54
2021/12/08 02:31:18;;;;;;;9.63;4.17;;;3.80;99.90;;;;;;5033215;28;20578;-54
2021/12/08 02:47:52;;;;;;;4.67;2.73;;;3.80;99.90;;;;;;5031938;28;20236;-54
2021/12/08 02:50:21;;;;;;;4.57;2.53;;;3.90;99.90;;;;;;5032593;28;20599;-55
2021/12/08 02:52:49;;;;;;;5.03;2.83;;;3.90;99.90;;;;;;5032965;28;20206;-55
2021/12/08 02:55:16;;;;;;;2.30;1.77;;;4.00;99.90;;;;;;5032974;28;20218;-55
2021/12/08 02:57:43;;;;;;;4.93;2.80;;;3.90;99.90;;;;;;5032430;28;20603;-54
2021/12/08 03:00:14;;;;;;;3.63;1.87;;;3.90;99.90;;;;;;5032766;28;20230;-55
2021/12/08 03:02:41;;;;;;;2.47;1.43;;;3.80;99.90;;;;;;5032759;28;20206;-54
2021/12/08 03:05:08;;;;;;;3.87;1.70;;;3.70;99.90;;;;;;5032232;28;20205;-56
2021/12/08 03:07:37;;;;;;;2.00;1.60;;;3.70;99.90;;;;;;5032224;28;20574;-54
2021/12/08 03:10:09;;;;;;;2.60;1.80;;;3.80;99.90;;;;;;5032318;28;20318;-56
2021/12/08 03:12:36;;;;;;;2.33;1.60;;;3.80;99.90;;;;;;5032562;28;20207;-54
2021/12/08 03:15:04;;;;;;;1.93;1.73;;;3.80;99.90;;;;;;5032404;28;20276;-54
2021/12/08 03:17:33;;;;;;;2.30;1.60;;;3.90;99.90;;;;;;5031904;28;20229;-54
2021/12/08 03:19:59;;;;;;;2.20;1.50;;;3.90;99.90;;;;;;5032485;28;20226;-54
2021/12/08 03:22:26;;;;;;;2.53;1.47;;;4.00;99.90;;;;;;5032247;28;20674;-55
2021/12/08 03:24:54;;;;;;;3.53;1.90;;;4.00;99.90;;;;;;5032255;28;20213;-54
2021/12/08 03:27:30;;;;;;;2.03;1.40;;;4.10;99.90;;;;;;5032125;28;20293;-56
2021/12/08 03:30:00;;;;;;;2.47;1.67;;;4.10;99.90;;;;;;5032055;28;20222;-54
2021/12/08 03:32:34;;;;;;;2.10;1.50;;;4.00;99.90;;;;;;5032733;28;20296;-54
2021/12/08 03:35:02;;;;;;;1.90;1.30;;;3.90;99.90;;;;;;5032044;28;20213;-55
2021/12/08 03:37:35;;;;;;;4.33;2.20;;;3.70;99.90;;;;;;5031712;28;20246;-56
2021/12/08 03:40:05;;;;;;;3.63;1.60;;;3.60;99.90;;;;;;5031931;28;20242;-54
2021/12/08 03:42:35;;;;;;;4.20;1.87;;;3.60;99.90;;;;;;5032022;28;20210;-54
2021/12/08 03:45:07;;;;;;;3.27;1.77;;;3.60;99.90;;;;;;5032139;28;20210;-54
2021/12/08 03:47:34;;;;;;;4.37;1.73;;;3.60;99.90;;;;;;5032030;28;20292;-54
2021/12/08 03:50:03;;;;;;;3.93;1.70;;;3.60;99.90;;;;;;5032039;28;20229;-57
2021/12/08 03:52:29;;;;;;;3.97;1.80;;;3.60;99.90;;;;;;5031971;28;20640;-54
2021/12/08 03:54:56;;;;;;;3.77;2.63;;;3.50;99.90;;;;;;5031838;28;20217;-53
2021/12/08 03:57:23;;;;;;;4.87;2.10;;;3.60;99.90;;;;;;5031760;28;20287;-54
2021/12/08 03:59:51;;;;;;;3.00;1.60;;;3.70;99.90;;;;;;5034754;28;20234;-54
2021/12/08 04:02:18;;;;;;;2.83;2.00;;;3.90;99.90;;;;;;5036258;28;20206;-55
2021/12/08 04:04:48;;;;;;;2.87;1.67;;;4.00;99.90;;;;;;5035986;28;20229;-54
2021/12/08 04:07:17;;;;;;;2.37;1.90;;;4.10;99.90;;;;;;5035599;28;20206;-54
2021/12/08 04:09:45;;;;;;;3.47;1.70;;;4.10;99.90;;;;;;5035604;28;20230;-55
2021/12/08 04:12:17;;;;;;;4.20;1.93;;;4.20;99.90;;;;;;5035883;28;20300;-54
2021/12/08 04:14:48;;;;;;;3.40;1.80;;;4.20;99.90;;;;;;5035986;28;20213;-54
2021/12/08 04:17:20;;;;;;;4.73;1.70;;;4.20;99.90;;;;;;5035542;28;20218;-54
2021/12/08 04:19:47;;;;;;;4.67;1.90;;;4.20;99.90;;;;;;5035590;28;20634;-54
2021/12/08 04:22:24;;;;;;;2.63;1.80;;;4.00;99.90;;;;;;5035358;28;20209;-55
2021/12/08 04:24:52;;;;;;;2.80;1.70;;;4.00;99.90;;;;;;5035711;28;20654;-54
2021/12/08 04:27:22;;;;;;;3.77;1.77;;;3.90;99.90;;;;;;5035241;28;20209;-54
2021/12/08 04:29:49;;;;;;;3.40;1.80;;;3.80;99.90;;;;;;5035221;28;20710;-55
2021/12/08 04:32:22;;;;;;;2.00;1.43;;;3.80;99.90;;;;;;5035867;28;20235;-56
2021/12/08 04:34:53;;;;;;;2.80;1.73;;;3.80;99.90;;;;;;5035329;28;20678;-53
2021/12/08 04:37:26;;;;;;;2.13;1.73;;;3.80;99.90;;;;;;5035299;28;20237;-54
2021/12/08 04:40:06;;;;;;;3.57;2.00;;;3.90;99.90;;;;;;5035187;28;20234;-54
2021/12/08 04:42:47;;;;;;;2.80;1.87;;;4.00;99.90;;;;;;5035145;28;20252;-53
2021/12/08 04:45:21;;;;;;;3.20;1.90;;;4.10;99.90;;;;;;5035137;28;20847;-55
2021/12/08 04:48:08;;;;;;;2.07;1.50;;;4.10;99.90;;;;;;5034747;28;20577;-55
2021/12/08 04:50:59;;;;;;;4.90;1.83;;;4.10;99.90;;;;;;5035217;28;20317;-53
2021/12/08 04:53:39;;;;;;;2.23;1.80;;;4.00;99.90;;;;;;5035098;28;20203;-54
2021/12/08 05:02:17;;;;;;;4.67;2.00;;;4.30;99.90;;;;;;5033831;28;20197;-54
2021/12/08 05:05:01;;;;;;;5.13;2.60;;;4.30;99.90;;;;;;5034925;28;20581;-54
2021/12/08 05:07:46;;;;;;;3.70;2.10;;;4.40;99.90;;;;;;5034305;28;20578;-54
2021/12/08 05:10:19;;;;;;;3.03;1.90;;;4.40;99.90;;;;;;5033857;28;20284;-54
2021/12/08 05:12:49;;;;;;;2.93;2.17;;;4.50;99.90;;;;;;5034872;28;20229;-54
2021/12/08 05:15:21;;;;;;;2.30;2.00;;;4.60;99.90;;;;;;5034682;28;20674;-54
2021/12/08 05:17:51;;;;;;;2.33;1.83;;;4.60;99.90;;;;;;5034155;28;20226;-54
2021/12/08 05:20:26;;;;;;;3.03;2.13;;;4.60;99.90;;;;;;5034304;28;20230;-54
2021/12/08 05:22:58;;;;;;;4.33;2.37;;;4.50;99.90;;;;;;5034669;28;20264;-55
2021/12/08 05:25:29;;;;;;;3.50;2.50;;;4.50;99.90;;;;;;5034363;28;20702;-54
2021/12/08 05:27:59;;;;;;;3.00;2.47;;;4.60;99.90;;;;;;5034228;28;20203;-55
2021/12/08 05:30:29;;;;;;;2.43;2.00;;;4.70;99.90;;;;;;5034359;28;20317;-54
2021/12/08 05:32:56;;;;;;;3.77;2.20;;;4.80;99.90;;;;;;5034348;28;20289;-55
2021/12/08 05:35:26;;;;;;;2.20;1.87;;;4.90;99.90;;;;;;5034385;28;20482;-53
2021/12/08 05:37:53;;;;;;;2.80;1.97;;;4.90;99.90;;;;;;5033932;28;20237;-53
2021/12/08 05:40:23;;;;;;;3.33;2.30;;;4.90;99.90;;;;;;5056993;22;20226;-61
2021/12/08 05:42:50;;;;;;;4.87;3.17;;;5.00;99.90;;;;;;5034277;28;20209;-60
2021/12/08 05:45:20;;;;;;;4.00;2.47;;;5.00;99.90;;;;;;5034606;28;20206;-60
2021/12/08 05:47:50;;;;;;;4.23;2.13;;;5.00;99.90;;;;;;5034910;28;20206;-60
2021/12/08 05:50:20;;;;;;;3.23;2.20;;;4.90;99.90;;;;;;5035282;28;20233;-60
2021/12/08 05:52:49;;;;;;;3.37;2.00;;;4.90;99.90;;;;;;5034735;28;20207;-60
2021/12/08 05:55:16;;;;;;;3.87;2.00;;;4.90;99.90;;;;;;5035051;28;20206;-61
2021/12/08 05:57:47;;;;;;;2.80;1.97;;;4.90;99.90;;;;;;5034011;28;20230;-61
2021/12/08 06:00:20;;;;;;;3.00;2.10;;;4.90;99.90;;;;;;5034428;28;20744;-61
2021/12/08 06:02:47;;;;;;;3.60;2.47;;;5.00;99.90;;;;;;5034967;28;20206;-61
2021/12/08 06:05:15;;;;;;;3.83;2.50;;;5.00;99.90;;;;;;5034680;28;20276;-62
2021/12/08 06:07:43;;;;;;;3.70;2.40;;;5.10;99.90;;;;;;5034217;28;20272;-62
2021/12/08 06:10:15;;;;;;;2.93;2.20;;;5.20;99.90;;;;;;5034237;28;20230;-61
2021/12/08 06:12:43;;;;;;;30.37;21.03;;;5.30;99.90;;;;;;5034717;28;20210;-61
2021/12/08 06:15:10;;;;;;;5.00;2.60;;;5.30;99.90;;;;;;5034892;28;20211;-61
2021/12/08 06:17:36;;;;;;;3.27;2.37;;;5.30;99.90;;;;;;5034952;28;20233;-62
2021/12/08 06:20:05;;;;;;;28.17;12.73;;;5.20;99.90;;;;;;5040216;28;20259;-61
2021/12/08 06:22:32;;;;;;;3.93;2.90;;;5.20;99.90;;;;;;5040017;28;20608;-61
2021/12/08 06:24:59;;;;;;;5.17;4.27;;;5.20;99.90;;;;;;5041407;28;20209;-62
2021/12/08 06:27:27;;;;;;;3.50;2.53;;;5.00;99.90;;;;;;5046265;28;20207;-61
2021/12/08 06:29:54;;;;;;;7.83;5.43;;;5.10;99.90;;;;;;5041196;28;20759;-61
2021/12/08 06:32:21;;;;;;;3.40;2.70;;;5.20;99.90;;;;;;5033495;28;20662;-62
2021/12/08 06:34:51;;;;;;;6.60;4.70;;;5.20;99.90;;;;;;5033405;28;20280;-61
2021/12/08 06:37:20;;;;;;;7.10;3.60;;;5.30;99.90;;;;;;5033064;28;20260;-61
2021/12/08 06:39:50;;;;;;;5.20;3.17;;;5.30;99.90;;;;;;5033018;28;20238;-61
2021/12/08 06:42:20;;;;;;;3.07;2.77;;;5.20;99.90;;;;;;5034269;28;20732;-61
2021/12/08 06:44:51;;;;;;;3.90;3.10;;;5.00;99.90;;;;;;5034356;28;20213;-61
2021/12/08 06:47:20;;;;;;;3.10;2.80;;;4.80;99.90;;;;;;5033668;28;20210;-62
2021/12/08 06:49:50;;;;;;;4.67;2.90;;;4.60;99.90;;;;;;5033782;28;20240;-62
2021/12/08 06:52:21;;;;;;;3.90;3.00;;;4.60;99.90;;;;;;5034123;28;20504;-61
2021/12/08 06:54:52;;;;;;;5.00;3.10;;;4.60;99.90;;;;;;5033439;28;20573;-61
2021/12/08 06:57:23;;;;;;;5.33;3.27;;;4.50;99.90;;;;;;5035343;28;20217;-62
2021/12/08 06:59:58;;;;;;;3.50;2.90;;;4.50;99.90;;;;;;5038327;28;20226;-62
2021/12/08 07:05:29;;;;;;;4.60;3.43;;;4.50;99.90;;;;;;5022306;28;20755;-61
2021/12/08 07:08:07;;;;;;;5.90;3.40;;;4.60;99.90;;;;;;5037121;28;20289;-62
2021/12/08 07:10:39;;;;;;;4.00;3.03;;;4.70;99.90;;;;;;5037282;28;20233;-62
2021/12/08 07:13:09;;;;;;;3.90;3.27;;;4.80;99.90;;;;;;5040760;28;20696;-62
2021/12/08 07:15:41;;;;;;;5.13;3.20;;;4.80;99.90;;;;;;5034178;28;20241;-62
2021/12/08 07:18:11;;;;;;;3.37;2.80;;;4.80;99.90;;;;;;5045023;28;20230;-62
2021/12/08 07:20:46;;;;;;;4.70;3.60;;;4.70;99.90;;;;;;5045232;28;20230;-63
2021/12/08 07:23:16;;;;;;;5.13;3.50;;;4.60;99.90;;;;;;5041592;28;20205;-62
2021/12/08 07:25:43;;;;;;;6.57;4.37;;;4.60;99.90;;;;;;5034190;28;20210;-61
2021/12/08 07:28:11;;;;;;;6.50;3.87;;;4.70;99.90;;;;;;5033621;28;20203;-61
2021/12/08 07:30:44;;;;;;;5.30;3.60;;;4.80;99.90;;;;;;5032530;28;20226;-62
2021/12/08 07:33:10;;;;;;;5.23;3.60;;;4.90;99.90;;;;;;5032109;28;20669;-62
2021/12/08 07:35:41;;;;;;;6.37;3.83;;;4.90;99.90;;;;;;5032572;28;20214;-61
2021/12/08 07:38:12;;;;;;;12.43;6.83;;;4.90;99.90;;;;;;5032114;28;20279;-61
2021/12/08 07:40:44;;;;;;;7.80;4.80;;;4.90;99.90;;;;;;5032591;28;20229;-62
2021/12/08 07:43:18;;;;;;;6.90;3.73;;;5.00;99.90;;;;;;5032370;28;20213;-62
2021/12/08 07:45:49;;;;;;;4.07;3.33;;;5.20;99.90;;;;;;5032276;28;20213;-62
2021/12/08 07:48:19;;;;;;;5.87;4.50;;;5.40;99.90;;;;;;5031885;28;20669;-61
2021/12/08 07:50:50;;;;;;;6.63;2.93;;;5.60;99.90;;;;;;5032261;28;20226;-61
2021/12/08 07:53:21;;;;;;;4.23;2.97;;;5.70;99.90;;;;;;5032193;28;20210;-61
2021/12/08 07:55:50;;;;;;;5.13;3.53;;;5.80;99.90;;;;;;5032032;28;20252;-61
2021/12/08 07:58:21;;;;;;;3.40;3.00;;;5.80;99.90;;;;;;5031786;28;20604;-61
2021/12/08 08:00:53;;;;;;;3.67;2.90;;;5.80;99.90;;;;;;5031964;28;20222;-60
2021/12/08 08:03:21;;;;;;;3.57;2.80;;;5.90;99.90;;;;;;5032212;28;20655;-60
2021/12/08 08:05:50;;;;;;;2.90;2.53;;;5.80;99.90;;;;;;5032491;28;20202;-60
2021/12/08 08:08:18;;;;;;;5.37;2.73;;;5.80;99.90;;;;;;5032108;28;20602;-60
2021/12/08 08:10:50;;;;;;;3.30;2.80;;;5.70;99.90;;;;;;5032236;28;20876;-60
2021/12/08 08:13:19;;;;;;;4.37;3.00;;;5.70;99.90;;;;;;5032108;28;20542;-60
2021/12/08 08:15:51;;;;;;;3.97;2.67;;;5.70;99.90;;;;;;5032165;28;20307;-60
2021/12/08 08:18:24;;;;;;;5.57;3.40;;;5.60;99.90;;;;;;5031864;28;20642;-60
2021/12/08 08:20:55;;;;;;;4.03;3.03;;;5.60;99.90;;;;;;5032178;28;20230;-61
2021/12/08 08:23:25;;;;;;;5.30;3.23;;;5.60;99.90;;;;;;5032126;28;20210;-62
2021/12/08 08:25:54;;;;;;;5.00;3.43;;;5.60;99.90;;;;;;5031807;28;20213;-61
2021/12/08 08:28:22;;;;;;;7.87;4.07;;;5.60;99.90;;;;;;5032099;28;20260;-61
2021/12/08 08:30:53;;;;;;;3.70;3.30;;;5.50;99.90;;;;;;5032029;28;20230;-61
2021/12/08 08:33:21;;;;;;;6.00;3.40;;;5.50;99.90;;;;;;5031746;28;20678;-61
2021/12/08 08:35:52;;;;;;;5.67;3.03;;;5.40;99.90;;;;;;5032007;28;20202;-62
2021/12/08 08:38:23;;;;;;;6.97;3.37;;;5.40;99.90;;;;;;5031586;28;20300;-61
2021/12/08 08:40:55;;;;;;;4.40;3.30;;;5.40;99.90;;;;;;5031913;28;20237;-62
2021/12/08 08:43:22;;;;;;;4.43;3.20;;;5.40;99.90;;;;;;5032125;28;20203;-61
2021/12/08 08:45:55;;;;;;;5.90;3.33;;;5.50;99.90;;;;;;5032917;28;20206;-62
2021/12/08 08:48:26;;;;;;;6.07;3.23;;;5.60;99.90;;;;;;5034942;28;20199;-61
2021/12/08 08:50:58;;;;;;;9.07;3.70;;;5.80;99.90;;;;;;5034788;28;20237;-62
2021/12/08 08:53:29;;;;;;;5.40;4.00;;;5.90;99.90;;;;;;5035156;28;20206;-64
2021/12/08 08:55:59;;;;;;;6.93;3.10;;;5.90;99.90;;;;;;5035129;28;20688;-61
2021/12/08 08:58:28;;;;;;;5.23;2.93;;;6.00;99.90;;;;;;5034682;28;20640;-61
2021/12/08 09:01:05;;;;;;;5.47;3.30;;;6.10;99.90;;;;;;5034836;28;20229;-61
2021/12/08 09:03:41;;;;;;;3.93;3.33;;;6.20;99.90;;;;;;5034702;28;20206;-61
2021/12/08 09:06:13;;;;;;;5.00;3.17;;;6.30;99.90;;;;;;5034927;28;20210;-59
2021/12/08 09:08:41;;;;;;;5.17;3.40;;;6.50;99.90;;;;;;5034385;28;20253;-60
2021/12/08 09:11:13;;;;;;;6.03;3.30;;;6.60;99.90;;;;;;5034474;28;20233;-62
2021/12/08 09:13:44;;;;;;;6.13;3.27;;;6.80;99.90;;;;;;5034298;28;20736;-60
2021/12/08 09:16:15;;;;;;;5.00;3.47;;;7.00;99.90;;;;;;5034683;28;20210;-62
2021/12/08 09:18:51;;;;;;;4.77;3.30;;;7.30;99.90;;;;;;5034484;28;20229;-61
2021/12/08 09:21:24;;;;;;;5.10;3.73;;;7.30;99.90;;;;;;5034663;28;20221;-60
2021/12/08 09:24:01;;;;;;;3.77;3.30;;;7.30;99.90;;;;;;5034386;28;20218;-60
2021/12/08 09:26:30;;;;;;;5.00;3.93;;;7.50;99.90;;;;;;5034589;28;20263;-62
2021/12/08 09:29:01;;;;;;;5.40;3.30;;;7.50;99.90;;;;;;5034280;28;20260;-61
2021/12/08 09:31:32;;;;;;;4.73;3.30;;;7.50;99.90;;;;;;5034426;28;20234;-60
2021/12/08 09:34:04;;;;;;;5.67;3.30;;;7.40;99.90;;;;;;5034478;28;20202;-60
2021/12/08 09:36:34;;;;;;;4.03;3.30;;;7.50;99.90;;;;;;5034141;28;20206;-62
2021/12/08 09:39:08;;;;;;;4.50;3.27;;;7.50;99.90;;;;;;5034121;28;20303;-60
2021/12/08 09:41:40;;;;;;;3.30;3.00;;;7.40;99.90;;;;;;5033839;28;20244;-61
2021/12/08 09:44:09;;;;;;;3.57;2.80;;;7.40;99.90;;;;;;5034103;28;20203;-61
2021/12/08 09:46:40;;;;;;;4.67;3.00;;;7.30;99.90;;;;;;5033923;28;20213;-61
2021/12/08 09:49:08;;;;;;;3.10;2.80;;;7.40;99.90;;;;;;5033966;28;20202;-60
2021/12/08 09:51:36;;;;;;;4.00;3.00;;;7.50;99.90;;;;;;5033708;28;20713;-62
2021/12/08 09:54:03;;;;;;;4.27;2.93;;;7.60;99.90;;;;;;5033885;28;20210;-60
2021/12/08 09:56:32;;;;;;;4.07;2.73;;;7.60;99.90;;;;;;5033209;28;20202;-61
2021/12/08 09:59:00;;;;;;;4.47;2.77;;;7.60;99.90;;;;;;5033448;28;20638;-60
2021/12/08 10:01:27;;;;;;;5.67;3.03;;;7.60;99.90;;;;;;5033392;28;20602;-61
2021/12/08 10:03:56;;;;;;;5.77;2.73;;;7.70;99.90;;;;;;5033128;28;20229;-61
2021/12/08 10:06:25;;;;;;;3.33;2.90;;;7.80;99.90;;;;;;5033712;28;20206;-61
2021/12/08 10:08:57;;;;;;;4.27;3.00;;;7.80;99.90;;;;;;5033323;28;20206;-60
2021/12/08 10:11:26;;;;;;;7.87;5.70;;;7.90;99.90;;;;;;5033468;28;20236;-60
2021/12/08 10:13:52;;;;;;;7.17;3.30;;;7.90;99.90;;;;;;5033291;28;20205;-60
2021/12/08 10:16:20;;;;;;;3.93;3.20;;;8.00;99.90;;;;;;5033108;28;20213;-61
2021/12/08 10:18:47;;;;;;;5.60;3.00;;;8.10;99.90;;;;;;5033125;28;20283;-61
2021/12/08 10:21:16;;;;;;;3.60;2.70;;;8.10;99.90;;;;;;5033388;28;20237;-61
2021/12/08 10:23:44;;;;;;;4.37;2.70;;;8.30;99.90;;;;;;5033159;28;20206;-62
2021/12/08 10:26:14;;;;;;;4.57;3.10;;;8.50;99.90;;;;;;5033100;28;20688;-60
2021/12/08 10:28:42;;;;;;;4.27;3.07;;;8.50;99.90;;;;;;5032786;28;20236;-62
2021/12/08 10:31:13;;;;;;;3.63;2.87;;;8.50;99.90;;;;;;5033233;28;20233;-62
2021/12/08 10:34:01;;;;;;;4.00;3.00;;;8.40;99.90;;;;;;5032934;28;20583;-62
2021/12/08 10:36:45;;;;;;;3.97;3.30;;;8.40;99.90;;;;;;5032970;28;20257;-60
2021/12/08 10:39:24;;;;;;;4.40;3.10;;;8.30;99.90;;;;;;5032507;28;20218;-62
2021/12/08 10:41:57;;;;;;;5.03;3.40;;;8.00;99.90;;;;;;5032969;28;20293;-62
2021/12/08 10:44:26;;;;;;;5.17;3.30;;;7.80;99.90;;;;;;5033188;28;20260;-61
2021/12/08 10:46:56;;;;;;;4.03;3.10;;;7.80;99.90;;;;;;5032733;28;20581;-61
2021/12/08 10:54:22;;;;;;;5.47;3.67;;;7.60;99.90;;;;;;5032806;28;20202;-61
2021/12/08 10:54:57;;;;;;;5.33;3.70;;;7.50;99.90;;;;;;5032876;28;20325;-60
2021/12/08 10:57:26;;;;;;;10.00;6.67;;;7.40;99.90;;;;;;5032397;28;20674;-61
2021/12/08 10:59:56;;;;;;;5.57;3.80;;;7.40;99.90;;;;;;5031948;28;20234;-61
2021/12/08 11:02:42;;;;;;;4.53;3.13;;;7.50;99.90;;;;;;5032716;28;20211;-61
2021/12/08 11:05:37;;;;;;;5.40;3.70;;;7.60;99.90;;;;;;5032516;28;20216;-61
2021/12/08 11:08:09;;;;;;;4.20;3.07;;;7.70;99.90;;;;;;5031608;28;20210;-62
2021/12/08 11:10:38;;;;;;;3.83;3.17;;;7.80;99.90;;;;;;5032236;28;20226;-61
2021/12/08 11:13:07;;;;;;;3.63;2.83;;;8.00;99.90;;;;;;5032220;28;20256;-61
2021/12/08 11:15:34;;;;;;;6.03;2.97;;;8.10;99.90;;;;;;5032423;28;20217;-62
2021/12/08 11:18:17;;;;;;;4.67;3.07;;;8.30;99.90;;;;;;5032950;28;20214;-62
2021/12/08 11:20:47;;;;;;;5.07;2.93;;;8.50;99.90;;;;;;5032160;28;20230;-62
2021/12/08 11:23:19;;;;;;;3.40;3.10;;;8.60;99.90;;;;;;5032314;28;20213;-61
2021/12/08 11:25:50;;;;;;;5.13;3.43;;;8.70;99.90;;;;;;5032213;28;20242;-61
2021/12/08 11:28:30;;;;;;;7.57;4.97;;;8.80;99.90;;;;;;5032037;28;20228;-62
2021/12/08 11:31:06;;;;;;;7.03;4.17;;;8.90;99.90;;;;;;5031987;28;20221;-62
2021/12/08 11:33:36;;;;;;;4.83;4.30;;;9.10;99.90;;;;;;5032011;28;20202;-62
2021/12/08 11:36:15;;;;;;;5.27;4.00;;;9.10;99.90;;;;;;5032230;28;20210;-61
2021/12/08 11:38:44;;;;;;;5.20;3.97;;;9.20;99.90;;;;;;5031955;28;20562;-62
2021/12/08 11:41:27;;;;;;;6.37;3.70;;;9.30;99.90;;;;;;5059259;22;20233;-59
2021/12/08 11:43:55;;;;;;;5.97;4.87;;;9.20;99.90;;;;;;5051809;28;20240;-61
2021/12/08 11:46:24;;;;;;;4.50;3.27;;;9.20;99.90;;;;;;5052304;28;20209;-59
2021/12/08 11:49:07;;;;;;;5.33;3.30;;;9.20;99.90;;;;;;5051625;28;20673;-59
2021/12/08 11:51:49;;;;;;;4.37;3.20;;;9.10;99.90;;;;;;5051827;28;20308;-59
2021/12/08 11:54:30;;;;;;;5.13;3.23;;;9.10;99.90;;;;;;5052236;28;20295;-59
2021/12/08 11:57:04;;;;;;;5.93;3.50;;;9.10;99.90;;;;;;5052213;28;20601;-58
2021/12/08 11:59:30;;;;;;;5.57;2.80;;;9.10;99.90;;;;;;5051486;28;20229;-59
2021/12/08 12:01:57;;;;;;;4.80;2.80;;;8.80;99.90;;;;;;5051853;28;20213;-59
2021/12/08 12:04:24;;;;;;;4.10;2.70;;;8.50;99.90;;;;;;5051696;28;20209;-61
2021/12/08 12:06:51;;;;;;;4.03;2.23;;;8.30;99.90;;;;;;5051833;28;20209;-58
2021/12/08 12:09:19;;;;;;;6.30;3.20;;;8.00;99.90;;;;;;5051658;28;20205;-60
2021/12/08 12:11:49;;;;;;;2.93;2.20;;;8.00;99.90;;;;;;5051697;28;20252;-60
2021/12/08 12:14:16;;;;;;;3.93;2.90;;;8.00;99.90;;;;;;5051862;28;20210;-59
2021/12/08 12:16:43;;;;;;;4.70;3.10;;;8.20;99.90;;;;;;5051528;28;20214;-59
2021/12/08 12:19:15;;;;;;;3.77;3.17;;;8.50;99.90;;;;;;5051262;28;20275;-59
2021/12/08 12:21:56;;;;;;;4.13;3.10;;;8.60;99.90;;;;;;5055542;28;20603;-59
2021/12/08 12:24:40;;;;;;;4.80;2.73;;;8.70;99.90;;;;;;5055194;28;20209;-59
2021/12/08 12:27:21;;;;;;;5.90;4.40;;;8.70;99.90;;;;;;5055087;28;20209;-59
2021/12/08 12:30:02;;;;;;;3.33;2.90;;;8.50;99.90;;;;;;5054996;28;20218;-58
2021/12/08 12:32:33;;;;;;;4.33;3.70;;;8.60;99.90;;;;;;5055053;28;20210;-59
2021/12/08 12:35:20;;;;;;;4.43;3.30;;;8.70;99.90;;;;;;5055174;28;20212;-58
2021/12/08 12:37:49;;;;;;;6.37;5.20;;;8.90;99.90;;;;;;5055093;28;20209;-59
2021/12/08 12:40:17;;;;;;;7.65;6.85;;;9.00;99.90;;;;;;5054297;28;20487;-60
2021/12/08 12:42:50;;;;;;;8.33;7.20;;;9.20;99.90;;;;;;5054999;28;20210;-60
2021/12/08 12:45:17;;;;;;;4.67;3.80;;;9.30;99.90;;;;;;5054923;28;20205;-60
2021/12/08 12:48:09;;;;;;;6.77;3.90;;;9.30;99.90;;;;;;5054794;28;20216;-60
2021/12/08 12:50:54;;;;;;;5.47;3.53;;;9.10;99.90;;;;;;5054839;28;20218;-60
2021/12/08 12:53:41;;;;;;;5.00;3.90;;;9.00;99.90;;;;;;5054986;28;20202;-60
2021/12/08 12:56:10;;;;;;;6.13;3.90;;;8.90;99.90;;;;;;5054739;28;20210;-59
2021/12/08 12:58:50;;;;;;;7.70;5.20;;;8.80;99.90;;;;;;5053840;28;20225;-59
2021/12/08 13:01:20;;;;;;;5.30;4.20;;;8.90;99.90;;;;;;5054181;28;20230;-60
2021/12/08 13:03:50;;;;;;;5.83;3.90;;;8.90;99.90;;;;;;5054672;28;20217;-61
2021/12/08 13:06:39;;;;;;;6.50;4.50;;;8.90;99.90;;;;;;5054595;28;20584;-59
2021/12/08 13:09:08;;;;;;;4.47;3.97;;;8.90;99.90;;;;;;5054373;28;20286;-60
2021/12/08 13:11:51;;;;;;;5.13;3.87;;;8.90;99.90;;;;;;5054614;28;20218;-59
2021/12/08 13:14:29;;;;;;;4.97;4.23;;;8.80;99.90;;;;;;5054558;28;20741;-60
2021/12/08 13:17:15;;;;;;;5.00;3.80;;;8.70;99.90;;;;;;5054293;28;20212;-60
2021/12/08 13:19:45;;;;;;;4.60;4.10;;;8.70;99.90;;;;;;5053773;28;20201;-60
2021/12/08 13:22:44;;;;;;;5.40;4.17;;;8.70;99.90;;;;;;5054556;28;20209;-60
2021/12/08 13:25:40;;;;;;;5.10;4.27;;;8.60;99.90;;;;;;5054299;28;20568;-59
2021/12/08 13:28:29;;;;;;;5.47;4.40;;;8.50;99.90;;;;;;5053684;28;20216;-58
2021/12/08 13:31:04;;;;;;;6.17;4.20;;;8.50;99.90;;;;;;5053500;28;20727;-59
2021/12/08 13:33:36;;;;;;;5.30;4.27;;;8.50;99.90;;;;;;5054089;28;20676;-59
2021/12/08 13:36:31;;;;;;;4.30;3.60;;;8.40;99.90;;;;;;5054062;28;20213;-59
2021/12/08 13:39:14;;;;;;;5.77;4.77;;;8.30;99.90;;;;;;5053875;28;20214;-59
2021/12/08 13:41:52;;;;;;;6.93;4.80;;;8.20;99.90;;;;;;5053674;28;20225;-59
2021/12/08 13:44:22;;;;;;;6.73;4.67;;;8.20;99.90;;;;;;5054044;28;20213;-59
2021/12/08 13:46:52;;;;;;;6.23;4.20;;;8.10;99.90;;;;;;5053632;28;20209;-59
2021/12/08 13:49:22;;;;;;;8.03;4.83;;;7.90;99.90;;;;;;5053861;28;20363;-59